logo
Search for airport 
image banner adimage banner adimage banner ad
image banner ad

FA0641 - The Coves Estate Airstrip

Located in , South Africa

ICAO - , IATA -

Data provided by Airmate  

General information

Coordinates: S25°46'38" E27°47'35"
Elevation is 3902 feet MSL.
 
View others Airports in North-West

Operational data

Special qualification required
Current time UTC:
Current local time:
Weather at : FALA - Lanseria International ( 22 km )
METAR: FALA 151000Z 35010KT 9999 SCT025 18/10 Q1028 NOSIG
TAF: TAF FALA 151000Z 1512/1612 35010KT 9999 SCT035 TX22/1513Z TN12/1603Z PROB30 TEMPO 1512/1520 -TSRA FEW035CB BECMG 1516/1518 VRB03KT BECMG 1601/1603 05010KT BKN015 PROB30 TEMPO 1603/1606 BKN010 FM160800 02010KT 9999 SCT035 PROB30 TEMPO 1610/1612 -TSRA FEW030CB
View NOTAMs / SUP AIP / TFR affecting this airport [VIEW]
Communications frequencies: [VIEW]

Runways:

Airport contact information

Address: South Africa

Satellite view of FA0641